Time;durP1;ratioP1;P1;durP2;ratioP2;P2;SDS_P1;SDS_P2;PMS_P1;PMS_P2;Temp;Humidity;BMP_temperature;BMP_pressure;BME280_temperature;BME280_humidity;BME280_pressure;Samples;Min_cycle;Max_cycle;Signal;HPM_P1;HPM_P2
2022/01/20 00:01:23;;;;;;;15.80;10.73;;;;;;;4.09;60.18;99841.75;4938921;28;100749;-91
2022/01/20 00:03:38;;;;;;;16.07;9.93;;;;;;;4.05;60.08;99845.28;4953736;28;98327;-91
2022/01/20 00:09:23;;;;;;;18.77;11.27;;;;;;;4.11;60.03;99836.56;4933621;28;97016;-90
2022/01/20 00:28:12;;;;;;;21.47;12.30;;;;;;;4.16;60.62;99815.69;4973371;28;97050;-90
2022/01/20 00:38:22;;;;;;;16.57;10.87;;;;;;;4.17;60.74;99809.63;4953194;28;96784;-91
2022/01/20 00:40:47;;;;;;;14.87;9.67;;;;;;;4.21;60.85;99811.28;4952651;28;96945;-89
2022/01/20 00:43:13;;;;;;;15.73;9.77;;;;;;;4.18;60.43;99813.91;4935645;28;101819;-90
2022/01/20 00:45:39;;;;;;;17.07;10.13;;;;;;;4.18;60.77;99821.72;4920304;28;101224;-90
2022/01/20 00:48:05;;;;;;;14.90;8.77;;;;;;;4.16;60.73;99806.16;4933022;28;96827;-92
2022/01/20 00:50:34;;;;;;;16.10;9.43;;;;;;;4.16;60.69;99813.97;4953315;28;96797;-91
2022/01/20 00:53:00;;;;;;;13.43;9.50;;;;;;;4.20;60.68;99819.97;4943808;28;100178;-91
2022/01/20 00:55:25;;;;;;;14.93;9.23;;;;;;;4.22;60.53;99813.88;4957003;28;100945;-90
2022/01/20 00:57:51;;;;;;;13.43;8.90;;;;;;;4.18;60.51;99809.59;4925128;28;97061;-91
2022/01/20 01:00:17;;;;;;;13.37;8.83;;;;;;;4.01;60.82;99778.66;4936710;28;96995;-91
2022/01/20 01:02:43;;;;;;;13.10;8.40;;;;;;;4.26;60.56;99802.53;4951407;28;99973;-90
2022/01/20 01:05:09;;;;;;;12.77;8.20;;;;;;;4.17;60.65;99783.63;4935879;28;99967;-90
2022/01/20 01:10:05;;;;;;;11.80;8.40;;;;;;;4.09;61.39;99768.16;4956909;28;97375;-91
2022/01/20 01:12:43;;;;;;;13.40;9.27;;;;;;;4.23;61.51;99797.38;4950932;28;97470;-90
2022/01/20 01:15:15;;;;;;;11.73;8.17;;;;;;;4.25;61.46;99795.63;4932760;28;100922;-90
2022/01/20 01:20:27;;;;;;;17.67;9.10;;;;;;;4.21;61.71;99800.88;4941291;28;96744;-91
2022/01/20 01:22:53;;;;;;;13.57;9.27;;;;;;;4.24;61.93;99793.88;4968378;28;98465;-90
2022/01/20 01:25:18;;;;;;;14.40;9.27;;;;;;;4.14;62.52;99781.09;4981279;28;100473;-91
2022/01/20 01:27:45;;;;;;;13.70;9.13;;;;;;;4.18;62.33;99783.59;4929063;28;96900;-90
2022/01/20 01:32:57;;;;;;;10.57;6.23;;;;;;;4.14;62.60;99784.53;4943643;28;101748;-91
2022/01/20 01:35:24;;;;;;;9.63;6.83;;;;;;;4.17;62.92;99786.25;4940743;28;101291;-91
2022/01/20 01:40:34;;;;;;;12.83;6.30;;;;;;;4.23;63.97;99779.19;4954833;28;96712;-91
2022/01/20 01:43:06;;;;;;;8.57;5.23;;;;;;;4.23;64.25;99784.38;4936592;28;98448;-91
2022/01/20 01:45:35;;;;;;;7.30;4.88;;;;;;;4.05;65.36;99754.38;4946221;28;97580;-91
2022/01/20 01:48:06;;;;;;;7.88;4.68;;;;;;;4.12;65.24;99760.31;4954891;28;97054;-91
2022/01/20 01:50:34;;;;;;;8.30;4.40;;;;;;;4.24;65.38;99774.84;4971720;28;97041;-91
2022/01/20 01:53:04;;;;;;;6.67;4.00;;;;;;;4.37;64.89;99767.72;4921916;28;100903;-91
2022/01/20 01:55:30;;;;;;;5.13;3.33;;;;;;;4.11;65.04;99743.03;4959859;28;98140;-91
2022/01/20 01:57:56;;;;;;;4.93;3.60;;;;;;;4.29;65.47;99776.50;4939350;28;97272;-90
2022/01/20 02:00:22;;;;;;;7.23;3.10;;;;;;;3.93;65.77;99713.03;4967002;28;96986;-91
2022/01/20 02:02:56;;;;;;;4.47;3.03;;;;;;;4.25;66.21;99769.63;4957354;28;101394;-90
2022/01/20 02:05:34;;;;;;;3.63;2.87;;;;;;;4.24;65.96;99759.25;4925610;28;98881;-89
2022/01/20 02:19:15;;;;;;;8.47;4.50;;;;;;;4.36;66.15;99740.00;4955105;28;96840;-92
2022/01/20 02:21:50;;;;;;;9.87;5.10;;;;;;;4.37;66.13;99742.59;4932440;28;97095;-89
2022/01/20 02:24:17;;;;;;;13.90;7.00;;;;;;;4.37;66.26;99742.59;4922865;28;99913;-91
2022/01/20 02:26:43;;;;;;;15.67;7.67;;;;;;;4.38;66.37;99743.44;4955427;28;98018;-89
2022/01/20 02:29:11;;;;;;;14.97;7.87;;;;;;;4.19;66.09;99697.00;4918553;28;97154;-93
2022/01/20 02:31:36;;;;;;;10.60;6.20;;;;;;;4.46;66.10;99732.03;4954539;28;96837;-92
2022/01/20 02:34:02;;;;;;;8.53;5.83;;;;;;;4.47;66.08;99730.28;4919619;28;101646;-90
2022/01/20 02:36:31;;;;;;;10.03;5.87;;;;;;;4.47;66.44;99725.06;4943808;28;100565;-91
2022/01/20 02:39:09;;;;;;;10.23;5.40;;;;;;;3.97;66.20;99634.19;4968063;28;96625;-91
2022/01/20 02:47:11;;;;;;;4.17;2.20;;;;;;;4.47;66.07;99704.28;4952276;28;101568;-92
2022/01/20 02:49:37;;;;;;;6.10;4.07;;;;;;;4.52;66.48;99716.31;4940916;28;96582;-91
2022/01/20 02:52:02;;;;;;;3.97;2.63;;;;;;;4.39;67.85;99682.78;4921832;28;97100;-91
2022/01/20 02:54:28;;;;;;;3.03;1.90;;;;;;;4.45;68.00;99695.63;4950904;28;101804;-90
2022/01/20 02:56:54;;;;;;;2.93;2.30;;;;;;;4.42;68.53;99709.59;4953384;28;100139;-92
2022/01/20 02:59:19;;;;;;;3.73;2.60;;;;;;;4.32;68.33;99685.47;4939223;28;97407;-92
2022/01/20 03:01:45;;;;;;;2.13;1.90;;;;;;;4.47;68.16;99710.31;4922320;28;96935;-90
2022/01/20 03:04:11;;;;;;;2.63;1.93;;;;;;;4.43;68.21;99690.50;4935356;28;100014;-90
2022/01/20 03:06:37;;;;;;;2.40;1.83;;;;;;;4.47;68.61;99697.34;4969065;28;101775;-91
2022/01/20 03:09:04;;;;;;;2.53;2.00;;;;;;;4.46;68.62;99697.38;4948986;28;97982;-92
2022/01/20 03:11:30;;;;;;;2.53;1.70;;;;;;;4.48;68.62;99703.38;4965273;28;96911;-91
2022/01/20 03:13:56;;;;;;;2.23;1.80;;;;;;;4.48;68.61;99698.19;4949268;28;101063;-91
2022/01/20 03:16:21;;;;;;;2.63;1.80;;;;;;;4.53;68.28;99706.75;4955788;28;101821;-92
2022/01/20 03:18:47;;;;;;;2.50;1.70;;;;;;;4.26;68.46;99653.56;4936546;28;97021;-91
2022/01/20 03:21:13;;;;;;;1.87;1.50;;;;;;;4.52;68.25;99707.66;4950834;28;97148;-91
2022/01/20 03:23:38;;;;;;;1.90;1.60;;;;;;;4.51;68.81;99704.19;4936667;28;100892;-90
2022/01/20 03:26:04;;;;;;;2.63;1.50;;;;;;;4.49;68.74;99692.97;4920792;28;100305;-90
2022/01/20 03:28:31;;;;;;;2.10;1.90;;;;;;;4.39;68.94;99677.56;4935110;28;97103;-90
2022/01/20 03:30:58;;;;;;;2.27;1.67;;;;;;;4.43;69.15;99685.28;4923773;28;97188;-89
2022/01/20 03:33:23;;;;;;;4.27;2.03;;;;;;;4.37;68.72;99668.97;4929510;28;100199;-89
2022/01/20 03:35:52;;;;;;;2.63;1.57;;;;;;;4.22;68.55;99652.78;4931391;28;100948;-90
2022/01/20 03:38:44;;;;;;;3.30;2.00;;;;;;;4.39;68.93;99670.63;4946876;28;96906;-90
2022/01/20 03:41:09;;;;;;;4.13;1.60;;;;;;;4.46;68.90;99672.25;4941324;28;96922;-91
2022/01/20 03:43:35;;;;;;;2.23;1.70;;;;;;;4.44;68.49;99680.94;4937684;28;101314;-91
2022/01/20 03:46:03;;;;;;;2.60;2.10;;;;;;;4.45;68.49;99673.13;4920324;28;101354;-90
2022/01/20 03:48:30;;;;;;;2.33;1.93;;;;;;;4.44;68.42;99673.16;4937243;28;97031;-90
2022/01/20 03:50:59;;;;;;;2.90;2.20;;;;;;;4.47;68.75;99681.72;4926109;28;96873;-91
2022/01/20 03:53:32;;;;;;;4.40;2.17;;;;;;;4.37;68.42;99662.03;4946958;28;100673;-91
2022/01/20 03:55:59;;;;;;;2.22;1.75;;;;;;;4.49;68.77;99677.38;4938118;28;100934;-90
2022/01/20 03:58:26;;;;;;;3.93;2.33;;;;;;;4.45;68.63;99675.72;4952763;28;96832;-90
2022/01/20 04:00:52;;;;;;;4.23;2.27;;;;;;;4.39;68.12;99668.03;4921441;28;96802;-91
2022/01/20 04:03:37;;;;;;;4.03;2.40;;;;;;;4.42;68.62;99674.91;4945876;28;98710;-91
2022/01/20 04:06:12;;;;;;;4.20;2.53;;;;;;;4.44;68.39;99679.19;4920128;28;101667;-90
2022/01/20 04:08:47;;;;;;;4.27;2.27;;;;;;;4.42;68.14;99678.41;4938523;28;97059;-91
2022/01/20 04:11:16;;;;;;;3.30;2.23;;;;;;;4.37;68.06;99645.59;4954655;28;97196;-91
2022/01/20 04:13:43;;;;;;;3.77;2.23;;;;;;;4.39;67.79;99670.63;4954535;28;101096;-90
2022/01/20 04:16:33;;;;;;;5.47;2.70;;;;;;;4.48;67.77;99695.59;4937893;28;100728;-91
2022/01/20 04:19:00;;;;;;;4.77;2.27;;;;;;;4.53;67.76;99701.56;4953195;28;96695;-91
2022/01/20 04:21:27;;;;;;;7.90;2.87;;;;;;;4.47;67.20;99689.53;4928726;28;97418;-90
2022/01/20 04:23:54;;;;;;;6.40;2.63;;;;;;;4.32;66.88;99663.84;4951724;28;99181;-90
2022/01/20 04:26:22;;;;;;;6.43;2.07;;;;;;;4.49;67.01;99699.91;4938078;28;100175;-90
2022/01/20 04:28:48;;;;;;;6.17;2.17;;;;;;;4.52;67.06;99695.50;4920115;28;97209;-88
2022/01/20 04:31:14;;;;;;;8.23;2.47;;;;;;;4.50;66.59;99697.28;4954641;28;97022;-91
2022/01/20 04:33:40;;;;;;;5.93;2.00;;;;;;;4.51;66.65;99699.00;4939151;28;99493;-90
2022/01/20 04:36:06;;;;;;;5.83;2.53;;;;;;;4.51;66.26;99706.81;4920932;28;101247;-90
2022/01/20 04:38:32;;;;;;;6.63;2.57;;;;;;;4.51;66.53;99709.41;4938556;28;97503;-91
2022/01/20 04:40:58;;;;;;;3.93;2.00;;;;;;;4.56;66.69;99700.66;4938306;28;97230;-90
2022/01/20 04:43:25;;;;;;;6.77;2.27;;;;;;;4.35;66.17;99671.59;4941603;28;100473;-90
2022/01/20 04:46:03;;;;;;;6.40;2.60;;;;;;;4.32;66.22;99679.44;4943059;28;100805;-90
2022/01/20 04:48:45;;;;;;;11.07;3.03;;;;;;;4.48;66.50;99701.66;4922286;28;96679;-91
2022/01/20 04:59:24;;;;;;;8.40;2.70;;;;;;;4.41;66.26;99683.59;4959441;28;97219;-91
2022/01/20 05:01:50;;;;;;;6.10;2.43;;;;;;;4.43;65.76;99706.09;4951240;28;97145;-89
2022/01/20 05:04:24;;;;;;;10.80;3.10;;;;;;;4.43;66.10;99708.69;4937113;28;99170;-90
2022/01/20 05:07:03;;;;;;;12.40;2.87;;;;;;;4.40;65.71;99715.69;4934760;28;100722;-91
2022/01/20 05:09:29;;;;;;;11.63;2.83;;;;;;;4.42;65.38;99711.28;4923392;28;96703;-88
2022/01/20 05:12:08;;;;;;;16.87;2.90;;;;;;;4.42;65.26;99722.56;4960340;28;96683;-90
2022/01/20 05:14:36;;;;;;;15.45;3.08;;;;;;;4.41;65.16;99709.59;4922207;28;101549;-90
2022/01/20 05:17:03;;;;;;;9.57;2.70;;;;;;;4.25;64.49;99686.50;4951610;28;101559;-90
2022/01/20 05:19:31;;;;;;;16.27;3.23;;;;;;;4.40;64.53;99716.53;4920286;28;96581;-90
2022/01/20 05:21:57;;;;;;;12.13;2.50;;;;;;;4.32;64.22;99700.22;4915711;28;97370;-89
2022/01/20 05:24:28;;;;;;;;;;;;;;;4.44;64.51;99718.19;4937670;28;100259;-89
2022/01/20 05:26:56;;;;;;;7.83;2.10;;;;;;;4.45;64.07;99709.53;4968043;28;100109;-89
2022/01/20 05:29:23;;;;;;;18.43;3.70;;;;;;;4.48;64.08;99700.78;4952234;28;97082;-90
2022/01/20 05:31:51;;;;;;;9.37;3.53;;;;;;;4.39;64.22;99695.75;4950074;28;96996;-89
2022/01/20 05:34:17;;;;;;;8.80;2.53;;;;;;;4.43;64.31;99719.09;4948893;28;101536;-90
2022/01/20 05:36:44;;;;;;;14.43;3.53;;;;;;;4.40;63.73;99713.09;4948380;28;101399;-90
2022/01/20 05:39:09;;;;;;;9.50;2.67;;;;;;;4.20;64.00;99696.09;4937393;28;97368;-90
2022/01/20 05:41:35;;;;;;;10.27;2.40;;;;;;;4.26;64.27;99697.75;4947812;28;96923;-90
2022/01/20 05:44:10;;;;;;;12.83;2.73;;;;;;;4.32;64.00;99731.41;4921636;28;100729;-90
2022/01/20 05:46:42;;;;;;;9.87;2.40;;;;;;;3.91;63.67;99656.81;4951986;28;101376;-90
2022/01/20 05:49:21;;;;;;;15.37;3.20;;;;;;;4.36;63.81;99727.00;4924415;28;96719;-90
2022/01/20 05:52:07;;;;;;;10.93;2.90;;;;;;;4.32;63.22;99718.41;4941064;28;96908;-90
2022/01/20 05:54:32;;;;;;;9.83;2.00;;;;;;;4.31;63.38;99695.91;4968980;28;100817;-90
2022/01/20 05:56:58;;;;;;;9.70;2.43;;;;;;;4.25;64.02;99711.63;4921750;28;101149;-90
2022/01/20 05:59:24;;;;;;;8.73;3.00;;;;;;;3.95;63.94;99669.69;4936833;28;97146;-90
2022/01/20 06:01:56;;;;;;;10.13;2.40;;;;;;;4.12;64.29;99691.94;4923996;28;97094;-89
2022/01/20 06:04:22;;;;;;;14.30;4.40;;;;;;;4.17;64.71;99711.75;4922798;28;100673;-90
2022/01/20 06:06:48;;;;;;;15.63;3.63;;;;;;;3.87;64.94;99676.78;4952857;28;101592;-90
2022/01/20 06:09:13;;;;;;;9.90;3.77;;;;;;;4.00;64.85;99698.19;4937692;28;97188;-90
2022/01/20 06:11:39;;;;;;;16.27;3.70;;;;;;;3.99;64.88;99719.88;4923539;28;96922;-90
2022/01/20 06:14:07;;;;;;;11.40;4.00;;;;;;;3.96;64.50;99720.78;4939360;28;101710;-90
2022/01/20 06:16:33;;;;;;;12.23;2.70;;;;;;;3.88;64.46;99717.44;4922222;28;101142;-90
2022/01/20 06:18:59;;;;;;;12.17;3.40;;;;;;;3.88;64.52;99721.78;4938529;28;97362;-90
2022/01/20 06:21:25;;;;;;;12.50;2.67;;;;;;;3.83;64.10;99708.88;4953812;28;96951;-90
2022/01/20 06:23:51;;;;;;;11.60;3.13;;;;;;;3.74;63.83;99688.25;4928488;28;100568;-90
2022/01/20 06:26:18;;;;;;;11.53;2.10;;;;;;;3.93;63.64;99718.22;4973590;28;101194;-90
2022/01/20 06:28:44;;;;;;;9.13;2.33;;;;;;;3.89;63.47;99702.72;4927805;28;97337;-89
2022/01/20 06:31:11;;;;;;;12.23;2.77;;;;;;;3.65;63.82;99665.88;4922299;28;97030;-90
2022/01/20 06:33:38;;;;;;;14.90;3.27;;;;;;;3.79;63.07;99683.84;4938499;28;101280;-91
2022/01/20 06:36:05;;;;;;;12.77;3.63;;;;;;;3.79;62.25;99689.88;4952221;28;99679;-90
2022/01/20 06:38:30;;;;;;;13.17;2.63;;;;;;;3.77;62.13;99690.78;4926092;28;96939;-90
2022/01/20 06:40:58;;;;;;;12.57;3.60;;;;;;;3.39;61.92;99625.63;4918310;28;97902;-88
2022/01/20 06:43:26;;;;;;;12.40;2.40;;;;;;;3.76;61.31;99670.91;4921418;28;100090;-90
2022/01/20 06:45:52;;;;;;;9.07;2.20;;;;;;;3.75;61.40;99679.56;4922057;28;101927;-90
2022/01/20 06:48:31;;;;;;;7.53;2.43;;;;;;;3.79;61.08;99681.25;4926268;28;96693;-88
2022/01/20 06:51:36;;;;;;;8.63;2.17;;;;;;;3.66;61.03;99665.00;4939190;28;97958;-92
2022/01/20 06:54:04;;;;;;;12.60;2.90;;;;;;;3.68;61.47;99670.19;4917477;28;101357;-90
2022/01/20 06:56:31;;;;;;;11.87;3.00;;;;;;;3.61;61.23;99657.31;4953062;28;99896;-90
2022/01/20 06:58:56;;;;;;;12.30;2.60;;;;;;;3.69;61.43;99658.91;4930779;28;96865;-91
2022/01/20 07:01:22;;;;;;;10.63;2.40;;;;;;;3.64;61.07;99656.41;4928025;28;97124;-91
2022/01/20 07:03:49;;;;;;;7.50;2.07;;;;;;;3.50;61.00;99635.00;4922281;28;101387;-91
2022/01/20 07:06:15;;;;;;;11.83;2.60;;;;;;;3.70;60.50;99660.63;4932484;28;101359;-92
2022/01/20 07:09:00;;;;;;;13.73;2.43;;;;;;;3.73;60.49;99661.44;4933786;28;99111;-91
2022/01/20 07:11:27;;;;;;;7.50;2.30;;;;;;;3.69;60.24;99651.13;4930171;28;97179;-91
2022/01/20 07:13:53;;;;;;;14.67;3.17;;;;;;;3.69;60.04;99640.72;4925160;28;101663;-90
2022/01/20 07:16:19;;;;;;;16.37;3.53;;;;;;;3.74;59.79;99641.50;4924287;28;99495;-91
2022/01/20 07:18:45;;;;;;;11.47;3.30;;;;;;;3.87;59.62;99650.81;4978981;28;96813;-91
2022/01/20 07:21:11;;;;;;;13.47;4.07;;;;;;;3.84;59.25;99636.16;4920686;28;97246;-91
2022/01/20 07:23:53;;;;;;;16.50;3.60;;;;;;;3.85;59.31;99635.25;4971685;28;99004;-90
2022/01/20 07:26:19;;;;;;;10.53;2.77;;;;;;;4.01;59.25;99651.41;4920176;28;101444;-92
2022/01/20 07:28:53;;;;;;;10.47;3.10;;;;;;;4.03;59.17;99639.25;4923398;28;97416;-90
2022/01/20 07:31:22;;;;;;;12.80;2.83;;;;;;;3.93;58.61;99618.69;4921695;28;97304;-91
2022/01/20 07:33:49;;;;;;;16.33;3.23;;;;;;;4.02;59.11;99645.34;4945282;28;101577;-91
2022/01/20 07:36:17;;;;;;;13.63;3.27;;;;;;;3.99;58.70;99626.38;4960069;28;99677;-91
2022/01/20 07:38:43;;;;;;;13.63;2.47;;;;;;;3.92;58.87;99612.63;4933735;28;97248;-91
2022/01/20 07:41:09;;;;;;;12.43;2.97;;;;;;;4.04;58.55;99620.22;4928845;28;96905;-91
2022/01/20 07:43:35;;;;;;;12.77;4.07;;;;;;;4.00;58.21;99620.28;4919890;28;101303;-90
2022/01/20 07:46:17;;;;;;;11.53;3.47;;;;;;;4.01;58.67;99614.19;4928232;28;101291;-92
2022/01/20 07:48:48;;;;;;;12.73;2.67;;;;;;;3.99;58.20;99614.25;4927410;28;96831;-91
2022/01/20 07:51:16;;;;;;;20.87;3.83;;;;;;;3.96;58.33;99598.72;4941440;28;96918;-91
2022/01/20 07:53:43;;;;;;;12.40;2.90;;;;;;;3.46;58.24;99517.44;4921034;28;100951;-90
2022/01/20 07:56:09;;;;;;;15.10;2.70;;;;;;;3.79;58.25;99582.59;4930772;28;100140;-91
2022/01/20 07:58:36;;;;;;;12.33;3.20;;;;;;;3.50;58.63;99534.66;4939358;28;97942;-92
2022/01/20 08:01:03;;;;;;;15.07;2.87;;;;;;;3.57;59.36;99562.19;4952321;28;97314;-90
2022/01/20 08:03:33;;;;;;;;;;;;;;;3.94;59.60;99608.28;4923054;28;101303;-92
2022/01/20 08:06:04;;;;;;;18.33;3.93;;;;;;;3.93;59.52;99611.75;4932796;28;100645;-91
2022/01/20 08:08:34;;;;;;;16.60;3.37;;;;;;;3.87;60.43;99617.06;4929703;28;96873;-93
2022/01/20 08:11:23;;;;;;;22.73;3.93;;;;;;;3.73;61.48;99603.47;4916788;28;97429;-93
2022/01/20 08:13:55;;;;;;;13.77;2.67;;;;;;;3.74;62.28;99610.38;4956910;28;98505;-91
2022/01/20 08:16:21;;;;;;;14.13;3.30;;;;;;;3.83;62.97;99636.16;4941916;28;99474;-92
2022/01/20 08:18:47;;;;;;;9.33;2.20;;;;;;;3.79;64.79;99642.31;4930959;28;96749;-95
2022/01/20 08:21:13;;;;;;;9.07;2.33;;;;;;;3.58;67.30;99664.28;4926970;28;98009;-88
2022/01/20 08:23:38;;;;;;;13.43;2.50;;;;;;;3.27;67.36;99638.81;4917945;28;101507;-90
2022/01/20 08:26:04;;;;;;;11.97;2.60;;;;;;;3.43;68.39;99693.03;4940405;28;101602;-89
2022/01/20 08:28:30;;;;;;;6.03;1.60;;;;;;;3.17;69.55;99692.56;4933241;28;98965;-86
2022/01/20 08:30:56;;;;;;;4.07;1.13;;;;;;;2.88;69.77;99687.75;4951051;28;97430;-87
2022/01/20 08:33:22;;;;;;;4.37;1.00;;;;;;;3.03;70.35;99732.53;4949359;28;101073;-91
2022/01/20 08:35:51;;;;;;;1.83;0.73;;;;;;;3.02;70.70;99734.25;4953008;28;101258;-89
2022/01/20 08:38:33;;;;;;;;;;;;;;;2.99;70.37;99739.47;4938168;28;98189;-89
2022/01/20 08:40:58;;;;;;;2.37;0.90;;;;;;;2.92;69.85;99698.94;4949637;28;97495;-89
2022/01/20 08:43:24;;;;;;;3.93;1.60;;;;;;;2.70;69.02;99670.69;4949725;28;100642;-91
2022/01/20 08:45:50;;;;;;;2.23;1.07;;;;;;;3.01;67.84;99721.31;4944886;28;101518;-88
2022/01/20 08:48:18;;;;;;;2.63;1.07;;;;;;;3.06;67.00;99714.34;4945887;28;97291;-88
2022/01/20 08:51:03;;;;;;;2.77;1.10;;;;;;;3.09;66.54;99719.47;4948713;28;97675;-88
2022/01/20 08:53:34;;;;;;;5.25;1.00;;;;;;;3.14;66.90;99720.25;4932366;28;101828;-88
2022/01/20 08:56:01;;;;;;;3.47;0.90;;;;;;;3.15;66.90;99733.22;4922446;28;100857;-88
2022/01/20 08:58:27;;;;;;;7.27;1.87;;;;;;;3.11;66.88;99733.25;4929950;28;97121;-87
2022/01/20 09:00:53;;;;;;;3.93;1.70;;;;;;;3.15;66.73;99722.00;4955827;28;97670;-87
2022/01/20 09:03:23;;;;;;;5.03;1.90;;;;;;;3.11;66.46;99713.41;4937408;28;97527;-89
2022/01/20 09:05:49;;;;;;;2.50;1.20;;;;;;;3.20;66.22;99717.59;4926167;28;101493;-90
2022/01/20 09:08:23;;;;;;;4.90;1.57;;;;;;;3.23;65.31;99725.34;4923090;28;97348;-91
2022/01/20 09:10:55;;;;;;;7.87;1.77;;;;;;;3.12;65.21;99703.88;4944366;28;97057;-89
2022/01/20 09:16:08;;;;;;;3.87;1.50;;;;;;;3.05;65.28;99736.78;4942854;28;101600;-89
2022/01/20 09:18:59;;;;;;;5.67;1.80;;;;;;;3.04;65.24;99748.06;4958220;28;97420;-89
2022/01/20 09:21:28;;;;;;;10.60;2.00;;;;;;;3.05;65.18;99748.91;4916899;28;97249;-89
2022/01/20 09:23:57;;;;;;;4.87;1.73;;;;;;;3.05;65.38;99738.53;4954216;28;100511;-88
2022/01/20 09:26:24;;;;;;;9.73;2.27;;;;;;;3.20;64.89;99748.72;4934666;28;101486;-90
2022/01/20 09:28:51;;;;;;;6.87;2.00;;;;;;;3.13;64.67;99747.94;4949031;28;97739;-91
2022/01/20 09:31:23;;;;;;;7.80;1.97;;;;;;;3.17;64.66;99753.94;4924951;28;96899;-88
2022/01/20 09:33:49;;;;;;;9.90;2.33;;;;;;;3.08;63.71;99736.75;4951468;28;101639;-90
2022/01/20 09:36:16;;;;;;;11.00;1.93;;;;;;;3.00;63.77;99720.47;4935626;28;100682;-91
2022/01/20 09:38:43;;;;;;;8.40;2.10;;;;;;;3.09;63.60;99737.63;4941531;28;97372;-94
2022/01/20 09:41:14;;;;;;;7.15;2.10;;;;;;;3.11;63.39;99733.25;4952109;28;97651;-92
2022/01/20 09:43:40;;;;;;;7.40;1.70;;;;;;;3.12;62.81;99754.00;4934827;28;98368;-91
2022/01/20 09:46:06;;;;;;;6.37;2.23;;;;;;;3.10;62.08;99768.72;4939568;28;98136;-91
2022/01/20 09:48:35;;;;;;;6.60;2.60;;;;;;;3.05;62.86;99770.50;4915063;28;97197;-91
2022/01/20 09:51:01;;;;;;;8.13;2.00;;;;;;;2.98;62.79;99773.22;4960989;28;96857;-91
2022/01/20 09:53:45;;;;;;;5.73;1.70;;;;;;;2.97;63.47;99785.31;4947893;28;97724;-88
2022/01/20 09:56:35;;;;;;;5.70;1.93;;;;;;;3.02;63.95;99795.63;4949800;28;97201;-91
2022/01/20 09:59:00;;;;;;;4.07;1.80;;;;;;;2.88;64.35;99772.44;4950194;28;97155;-90
2022/01/20 10:01:39;;;;;;;7.73;2.57;;;;;;;2.89;65.21;99780.22;4938892;28;96862;-92
2022/01/20 10:04:27;;;;;;;3.87;1.60;;;;;;;2.99;65.27;99830.22;4965011;28;100540;-90
2022/01/20 10:06:56;;;;;;;5.33;1.50;;;;;;;2.99;65.29;99812.06;4935191;28;98454;-92
2022/01/20 10:09:45;;;;;;;5.93;1.60;;;;;;;2.98;65.67;99812.97;4948210;28;97194;-91
2022/01/20 10:12:33;;;;;;;5.20;1.80;;;;;;;2.99;65.48;99837.16;4954016;28;98151;-90
2022/01/20 10:15:05;;;;;;;4.60;1.60;;;;;;;3.01;64.64;99838.00;4945879;28;97447;-93
2022/01/20 10:17:42;;;;;;;3.47;1.40;;;;;;;3.02;63.39;99826.75;4941884;28;100386;-91
2022/01/20 10:20:09;;;;;;;2.43;1.40;;;;;;;2.90;62.76;99823.41;4963381;28;97278;-92
2022/01/20 10:22:54;;;;;;;4.90;1.33;;;;;;;2.82;62.27;99829.53;4927487;28;96862;-92
2022/01/20 10:25:39;;;;;;;4.35;1.48;;;;;;;2.92;59.67;99859.69;4965806;28;97400;-93
2022/01/20 10:28:15;;;;;;;4.33;1.37;;;;;;;2.93;59.83;99846.69;4941587;28;101141;-91
2022/01/20 10:30:46;;;;;;;5.57;1.20;;;;;;;2.84;59.34;99845.94;4922981;28;96827;-93
2022/01/20 10:33:12;;;;;;;7.30;2.20;;;;;;;2.80;58.49;99836.50;4965567;28;97250;-91
2022/01/20 10:35:41;;;;;;;8.37;1.20;;;;;;;2.78;57.74;99840.81;4944450;28;101314;-90
2022/01/20 10:38:20;;;;;;;6.70;1.30;;;;;;;2.79;58.52;99830.44;4922063;28;101971;-89
2022/01/20 10:41:35;;;;;;;4.23;1.40;;;;;;;2.72;58.75;99824.44;4957756;28;97116;-91
2022/01/20 10:44:06;;;;;;;4.70;1.60;;;;;;;2.78;57.96;99833.06;4954334;28;96924;-89
2022/01/20 10:46:45;;;;;;;3.47;1.33;;;;;;;2.76;57.66;99843.41;4931041;28;101340;-91
2022/01/20 10:49:14;;;;;;;4.20;1.47;;;;;;;2.90;56.06;99843.28;4930124;28;100857;-91
2022/01/20 10:52:04;;;;;;;2.80;1.30;;;;;;;2.85;56.39;99848.53;4947948;28;97279;-89
2022/01/20 10:54:40;;;;;;;5.93;1.50;;;;;;;2.97;55.60;99850.16;4933288;28;96797;-92
2022/01/20 10:57:08;;;;;;;5.53;1.50;;;;;;;3.12;55.64;99816.25;4945118;28;100187;-91
2022/01/20 10:59:47;;;;;;;4.00;1.17;;;;;;;3.44;55.61;99846.13;4929913;28;101377;-93
2022/01/20 11:02:13;;;;;;;8.60;1.90;;;;;;;3.46;55.13;99846.09;4933718;28;97469;-90
2022/01/20 11:04:40;;;;;;;3.60;1.73;;;;;;;3.68;55.51;99857.09;4922196;28;97210;-91
2022/01/20 11:07:09;;;;;;;5.83;1.73;;;;;;;3.84;54.98;99841.28;4928306;28;100253;-86
2022/01/20 11:09:41;;;;;;;5.37;1.77;;;;;;;4.08;55.12;99844.41;4937351;28;99921;-86
2022/01/20 11:12:42;;;;;;;8.93;2.00;;;;;;;4.06;54.42;99828.81;4948687;28;97233;-83
2022/01/20 11:15:17;;;;;;;4.30;1.45;;;;;;;4.14;54.21;99831.31;4954733;28;98141;-92
2022/01/20 11:17:43;;;;;;;8.43;1.73;;;;;;;4.02;52.16;99844.50;4916674;28;100466;-91
2022/01/20 11:20:13;;;;;;;3.90;1.40;;;;;;;3.95;52.46;99828.13;4937359;28;102805;-88
2022/01/20 11:23:09;;;;;;;7.23;1.60;;;;;;;3.89;51.71;99809.19;4937599;28;97077;-93
2022/01/20 11:25:43;;;;;;;5.87;1.60;;;;;;;3.92;51.89;99825.56;4923334;28;97403;-93
2022/01/20 11:28:36;;;;;;;4.00;1.50;;;;;;;4.00;52.66;99831.50;4939057;28;101253;-92
2022/01/20 11:31:29;;;;;;;5.20;1.23;;;;;;;4.05;51.12;99841.84;4947820;28;97250;-93
2022/01/20 11:34:20;;;;;;;4.03;1.30;;;;;;;4.01;50.77;99835.81;4965499;28;97301;-92
2022/01/20 11:36:47;;;;;;;6.40;1.40;;;;;;;3.88;50.73;99834.28;4966899;28;97011;-92
2022/01/20 11:39:13;;;;;;;4.20;1.17;;;;;;;3.79;50.95;99803.28;4951882;28;97960;-94
2022/01/20 11:41:46;;;;;;;4.27;1.20;;;;;;;3.91;50.21;99831.66;4938477;28;98333;-95
2022/01/20 11:44:14;;;;;;;3.40;1.47;;;;;;;3.79;50.81;99804.13;4953636;28;97711;-94
2022/01/20 11:46:46;;;;;;;5.43;1.73;;;;;;;3.96;51.03;99835.03;4958282;28;98188;-90
2022/01/20 11:49:13;;;;;;;2.83;1.05;;;;;;;3.88;50.23;99820.47;4953152;28;99549;-94
2022/01/20 11:51:45;;;;;;;4.70;1.20;;;;;;;3.77;50.67;99807.63;4951477;28;101650;-92
2022/01/20 11:54:12;;;;;;;6.00;1.53;;;;;;;3.96;50.80;99848.03;4960474;28;97111;-93
2022/01/20 11:56:41;;;;;;;4.73;1.37;;;;;;;3.84;50.35;99822.25;4962587;28;97120;-94
2022/01/20 11:59:09;;;;;;;7.70;2.23;;;;;;;3.83;50.72;99836.94;4963722;28;98101;-90
2022/01/20 12:01:52;;;;;;;11.23;2.27;;;;;;;3.70;49.71;99800.81;4944761;28;98194;-93
2022/01/20 12:04:40;;;;;;;11.53;1.57;;;;;;;3.73;50.13;99839.72;4953059;28;96886;-92
2022/01/20 12:07:24;;;;;;;6.47;1.80;;;;;;;3.67;50.03;99826.81;4954853;28;97469;-93
2022/01/20 12:09:50;;;;;;;7.70;2.33;;;;;;;3.63;50.66;99842.41;4966294;28;100057;-94
2022/01/20 12:12:23;;;;;;;7.10;2.03;;;;;;;3.55;49.74;99836.47;4921725;28;100950;-92
2022/01/20 12:14:48;;;;;;;5.73;1.70;;;;;;;3.65;50.75;99849.34;4947753;28;97159;-96
2022/01/20 12:17:15;;;;;;;6.73;1.87;;;;;;;3.57;50.88;99831.25;4927897;28;96847;-94
2022/01/20 12:19:53;;;;;;;9.13;1.80;;;;;;;3.60;50.63;99839.84;4936646;28;101502;-94
2022/01/20 12:22:19;;;;;;;6.97;1.70;;;;;;;3.55;50.17;99838.19;4924711;28;101631;-96
2022/01/20 12:24:57;;;;;;;8.67;2.50;;;;;;;3.55;50.56;99828.69;4922015;28;97185;-86
2022/01/20 12:27:25;;;;;;;7.57;2.10;;;;;;;3.38;50.24;99792.59;4949991;28;97272;-86
2022/01/20 12:29:51;;;;;;;9.23;1.90;;;;;;;3.59;50.03;99850.28;4951756;28;101856;-90
2022/01/20 12:32:18;;;;;;;9.33;2.57;;;;;;;3.42;50.53;99823.69;4960682;28;101350;-89
2022/01/20 12:34:44;;;;;;;8.50;1.93;;;;;;;3.59;50.19;99837.28;4945107;28;97103;-86
2022/01/20 12:37:10;;;;;;;5.43;1.83;;;;;;;3.57;50.84;99820.88;4955339;28;97364;-90
2022/01/20 12:39:38;;;;;;;6.47;1.90;;;;;;;3.72;50.68;99836.22;4955849;28;98379;-92
2022/01/20 12:42:12;;;;;;;6.27;2.60;;;;;;;3.76;51.02;99840.53;4949092;28;100185;-91
2022/01/20 12:47:37;;;;;;;7.30;2.00;;;;;;;3.75;50.30;99846.59;4937460;28;96877;-94
2022/01/20 12:50:03;;;;;;;9.07;2.17;;;;;;;3.67;50.58;99832.88;4937433;28;100293;-91
2022/01/20 12:52:29;;;;;;;9.80;2.30;;;;;;;3.69;50.01;99841.47;4940631;28;101324;-88
2022/01/20 12:54:55;;;;;;;10.77;3.60;;;;;;;3.64;50.66;99843.28;4927422;28;96795;-94
2022/01/20 12:57:21;;;;;;;8.53;2.40;;;;;;;3.34;50.88;99787.44;4927075;28;97158;-93
2022/01/20 12:59:47;;;;;;;7.57;1.83;;;;;;;3.03;50.74;99750.69;4942069;28;98192;-94